sensor_id;sensor_type;location;lat;lon;timestamp;pressure;altitude;pressure_sealevel;temperature;humidity
19795;BME280;10057;59.402;17.866;2023-01-29T00:01:56;101009.78;;;0.93;84.25
19795;BME280;10057;59.402;17.866;2023-01-29T00:04:23;101009.75;;;0.95;84.45
19795;BME280;10057;59.402;17.866;2023-01-29T00:06:50;101017.63;;;0.97;84.38
19795;BME280;10057;59.402;17.866;2023-01-29T00:09:17;101008.91;;;0.98;84.37
19795;BME280;10057;59.402;17.866;2023-01-29T00:11:44;101006.31;;;0.99;84.64
19795;BME280;10057;59.402;17.866;2023-01-29T00:14:10;101001.97;;;1.00;84.19
19795;BME280;10057;59.402;17.866;2023-01-29T00:16:37;101000.19;;;0.99;84.28
19795;BME280;10057;59.402;17.866;2023-01-29T00:19:04;101004.56;;;0.98;84.37
19795;BME280;10057;59.402;17.866;2023-01-29T00:21:31;101003.69;;;0.98;84.21
19795;BME280;10057;59.402;17.866;2023-01-29T00:23:58;101007.19;;;1.00;84.28
19795;BME280;10057;59.402;17.866;2023-01-29T00:26:25;101009.81;;;1.00;84.48
19795;BME280;10057;59.402;17.866;2023-01-29T00:28:54;101004.59;;;1.01;84.51
19795;BME280;10057;59.402;17.866;2023-01-29T00:31:23;101005.44;;;1.02;84.54
19795;BME280;10057;59.402;17.866;2023-01-29T00:33:51;101008.94;;;1.02;84.43
19795;BME280;10057;59.402;17.866;2023-01-29T00:36:20;101013.28;;;1.02;84.79
19795;BME280;10057;59.402;17.866;2023-01-29T00:38:47;101015.94;;;1.03;84.25
19795;BME280;10057;59.402;17.866;2023-01-29T00:41:29;101013.28;;;1.02;84.30
19795;BME280;10057;59.402;17.866;2023-01-29T00:44:14;101008.94;;;1.02;84.66
19795;BME280;10057;59.402;17.866;2023-01-29T00:47:00;101002.84;;;1.02;84.32
19795;BME280;10057;59.402;17.866;2023-01-29T00:49:27;101009.81;;;1.00;84.44
19795;BME280;10057;59.402;17.866;2023-01-29T00:51:55;101012.44;;;1.00;84.83
19795;BME280;10057;59.402;17.866;2023-01-29T00:54:41;101009.81;;;1.00;84.74
19795;BME280;10057;59.402;17.866;2023-01-29T00:57:07;101006.31;;;1.01;84.57
19795;BME280;10057;59.402;17.866;2023-01-29T00:59:34;101005.44;;;1.02;84.28
19795;BME280;10057;59.402;17.866;2023-01-29T01:02:01;101002.00;;;1.03;84.53
19795;BME280;10057;59.402;17.866;2023-01-29T01:04:46;100999.38;;;1.03;84.41
19795;BME280;10057;59.402;17.866;2023-01-29T01:07:13;100996.78;;;1.03;84.46
19795;BME280;10057;59.402;17.866;2023-01-29T01:09:39;100995.00;;;1.02;84.50
19795;BME280;10057;59.402;17.866;2023-01-29T01:12:25;100985.44;;;1.01;84.71
19795;BME280;10057;59.402;17.866;2023-01-29T01:14:51;100984.56;;;1.02;84.44
19795;BME280;10057;59.402;17.866;2023-01-29T01:17:18;100982.84;;;1.04;84.43
19795;BME280;10057;59.402;17.866;2023-01-29T01:19:45;100986.31;;;1.03;84.50
19795;BME280;10057;59.402;17.866;2023-01-29T01:22:12;100974.13;;;1.03;84.56
19795;BME280;10057;59.402;17.866;2023-01-29T01:24:39;100979.34;;;1.05;84.59
19795;BME280;10057;59.402;17.866;2023-01-29T01:27:06;100969.75;;;1.05;84.44
19795;BME280;10057;59.402;17.866;2023-01-29T01:29:32;100967.19;;;1.07;84.46
19795;BME280;10057;59.402;17.866;2023-01-29T01:31:59;100968.91;;;1.08;84.54
19795;BME280;10057;59.402;17.866;2023-01-29T01:34:27;100963.69;;;1.11;84.52
19795;BME280;10057;59.402;17.866;2023-01-29T01:36:54;100956.75;;;1.10;84.56
19795;BME280;10057;59.402;17.866;2023-01-29T01:39:24;100961.94;;;1.08;84.57
19795;BME280;10057;59.402;17.866;2023-01-29T01:41:52;100956.72;;;1.07;84.63
19795;BME280;10057;59.402;17.866;2023-01-29T01:44:54;100955.84;;;1.06;84.63
19795;BME280;10057;59.402;17.866;2023-01-29T01:47:38;100951.50;;;1.07;84.38
19795;BME280;10057;59.402;17.866;2023-01-29T01:50:10;100951.47;;;1.04;84.60
19795;BME280;10057;59.402;17.866;2023-01-29T01:52:43;100940.16;;;1.03;84.40
19795;BME280;10057;59.402;17.866;2023-01-29T01:55:12;100937.53;;;1.02;84.21
19795;BME280;10057;59.402;17.866;2023-01-29T01:57:42;100921.81;;;0.99;84.26
19795;BME280;10057;59.402;17.866;2023-01-29T02:00:14;100911.38;;;0.97;84.04
19795;BME280;10057;59.402;17.866;2023-01-29T02:02:45;100918.34;;;0.97;84.04
19795;BME280;10057;59.402;17.866;2023-01-29T02:05:33;100913.09;;;0.93;84.24
19795;BME280;10057;59.402;17.866;2023-01-29T02:08:36;100907.00;;;0.93;84.26
19795;BME280;10057;59.402;17.866;2023-01-29T02:11:22;100902.66;;;0.93;84.06
19795;BME280;10057;59.402;17.866;2023-01-29T02:13:50;100893.94;;;0.91;84.07
19795;BME280;10057;59.402;17.866;2023-01-29T02:16:20;100893.06;;;0.89;84.37
19795;BME280;10057;59.402;17.866;2023-01-29T02:18:48;100891.31;;;0.87;84.15
19795;BME280;10057;59.402;17.866;2023-01-29T02:29:54;100885.16;;;0.80;84.37
19795;BME280;10057;59.402;17.866;2023-01-29T02:32:32;100886.88;;;0.78;84.16
19795;BME280;10057;59.402;17.866;2023-01-29T02:35:25;100879.06;;;0.77;84.16
19795;BME280;10057;59.402;17.866;2023-01-29T02:41:09;100857.28;;;0.75;84.20
19795;BME280;10057;59.402;17.866;2023-01-29T02:43:47;100848.56;;;0.73;83.98
19795;BME280;10057;59.402;17.866;2023-01-29T02:49:36;100845.94;;;0.69;84.30
19795;BME280;10057;59.402;17.866;2023-01-29T02:52:12;100851.97;;;0.61;83.89
19795;BME280;10057;59.402;17.866;2023-01-29T02:54:45;100847.59;;;0.54;84.15
19795;BME280;10057;59.402;17.866;2023-01-29T02:57:20;100839.75;;;0.49;84.07
19795;BME280;10057;59.402;17.866;2023-01-29T02:59:53;100833.63;;;0.47;84.47
19795;BME280;10057;59.402;17.866;2023-01-29T03:02:27;100841.47;;;0.47;84.39
19795;BME280;10057;59.402;17.866;2023-01-29T03:05:02;100835.41;;;0.48;84.16
19795;BME280;10057;59.402;17.866;2023-01-29T03:07:34;100830.19;;;0.48;84.39
19795;BME280;10057;59.402;17.866;2023-01-29T03:12:52;100825.81;;;0.47;84.21
19795;BME280;10057;59.402;17.866;2023-01-29T03:15:27;100824.06;;;0.47;84.32
19795;BME280;10057;59.402;17.866;2023-01-29T03:17:58;100812.75;;;0.47;84.29
19795;BME280;10057;59.402;17.866;2023-01-29T03:20:32;100816.22;;;0.46;84.37
19795;BME280;10057;59.402;17.866;2023-01-29T03:23:05;100820.59;;;0.45;84.33
19795;BME280;10057;59.402;17.866;2023-01-29T03:25:35;100820.59;;;0.45;84.34
19795;BME280;10057;59.402;17.866;2023-01-29T03:28:23;100816.22;;;0.46;84.32
19795;BME280;10057;59.402;17.866;2023-01-29T03:31:11;100815.38;;;0.45;84.37
19795;BME280;10057;59.402;17.866;2023-01-29T03:34:19;100817.09;;;0.45;84.25
19795;BME280;10057;59.402;17.866;2023-01-29T03:36:56;100804.03;;;0.43;84.32
19795;BME280;10057;59.402;17.866;2023-01-29T03:39:26;100811.88;;;0.42;84.14
19795;BME280;10057;59.402;17.866;2023-01-29T03:47:21;100811.88;;;0.43;84.37
19795;BME280;10057;59.402;17.866;2023-01-29T03:52:46;100812.72;;;0.44;84.23
19795;BME280;10057;59.402;17.866;2023-01-29T03:55:23;100799.69;;;0.42;84.56
19795;BME280;10057;59.402;17.866;2023-01-29T03:57:59;100793.56;;;0.39;84.50
19795;BME280;10057;59.402;17.866;2023-01-29T04:00:59;100790.09;;;0.38;84.26
19795;BME280;10057;59.402;17.866;2023-01-29T04:03:57;100789.22;;;0.39;84.33
19795;BME280;10057;59.402;17.866;2023-01-29T04:06:31;100785.75;;;0.39;84.55
19795;BME280;10057;59.402;17.866;2023-01-29T04:09:21;100787.50;;;0.38;84.45
19795;BME280;10057;59.402;17.866;2023-01-29T04:12:02;100790.09;;;0.40;84.47
19795;BME280;10057;59.402;17.866;2023-01-29T04:14:30;100774.44;;;0.40;84.70
19795;BME280;10057;59.402;17.866;2023-01-29T04:17:00;100777.06;;;0.41;84.69
19795;BME280;10057;59.402;17.866;2023-01-29T04:19:29;100785.78;;;0.45;84.79
19795;BME280;10057;59.402;17.866;2023-01-29T04:22:06;100776.22;;;0.45;84.50
19795;BME280;10057;59.402;17.866;2023-01-29T04:24:33;100775.34;;;0.46;84.83
19795;BME280;10057;59.402;17.866;2023-01-29T04:32:54;100761.47;;;0.57;84.98
19795;BME280;10057;59.402;17.866;2023-01-29T04:38:05;100755.41;;;0.65;84.83
19795;BME280;10057;59.402;17.866;2023-01-29T04:40:50;100744.97;;;0.65;84.88
19795;BME280;10057;59.402;17.866;2023-01-29T04:43:29;100738.84;;;0.65;84.73
19795;BME280;10057;59.402;17.866;2023-01-29T04:51:43;100719.72;;;0.70;84.79
19795;BME280;10057;59.402;17.866;2023-01-29T04:56:47;100706.66;;;0.70;84.96
19795;BME280;10057;59.402;17.866;2023-01-29T04:59:20;100705.78;;;0.71;84.71
19795;BME280;10057;59.402;17.866;2023-01-29T05:01:47;100697.97;;;0.73;84.77
19795;BME280;10057;59.402;17.866;2023-01-29T05:04:17;100684.91;;;0.71;84.68
19795;BME280;10057;59.402;17.866;2023-01-29T05:06:46;100679.69;;;0.71;85.34
19795;BME280;10057;59.402;17.866;2023-01-29T05:09:15;100677.09;;;0.73;84.64
19795;BME280;10057;59.402;17.866;2023-01-29T05:11:44;100673.59;;;0.71;84.73
19795;BME280;10057;59.402;17.866;2023-01-29T05:14:16;100671.00;;;0.73;84.60
19795;BME280;10057;59.402;17.866;2023-01-29T05:16:50;100668.38;;;0.73;84.76
19795;BME280;10057;59.402;17.866;2023-01-29T05:19:18;100657.03;;;0.75;84.59
19795;BME280;10057;59.402;17.866;2023-01-29T05:21:47;100647.47;;;0.74;84.76
19795;BME280;10057;59.402;17.866;2023-01-29T05:24:17;100637.03;;;0.74;84.87
19795;BME280;10057;59.402;17.866;2023-01-29T05:26:46;100639.66;;;0.74;84.53
19795;BME280;10057;59.402;17.866;2023-01-29T05:29:32;100625.72;;;0.72;84.98
19795;BME280;10057;59.402;17.866;2023-01-29T05:31:59;100629.19;;;0.74;84.63
19795;BME280;10057;59.402;17.866;2023-01-29T05:34:26;100616.16;;;0.73;84.58
19795;BME280;10057;59.402;17.866;2023-01-29T05:36:52;100612.66;;;0.74;84.61
19795;BME280;10057;59.402;17.866;2023-01-29T05:39:19;100617.03;;;0.76;84.72
19795;BME280;10057;59.402;17.866;2023-01-29T05:41:47;100603.97;;;0.76;84.87
19795;BME280;10057;59.402;17.866;2023-01-29T05:44:13;100605.69;;;0.77;84.65
19795;BME280;10057;59.402;17.866;2023-01-29T05:46:40;100597.88;;;0.77;84.91
19795;BME280;10057;59.402;17.866;2023-01-29T05:49:07;100596.13;;;0.79;84.70
19795;BME280;10057;59.402;17.866;2023-01-29T05:51:34;100586.53;;;0.78;84.93
19795;BME280;10057;59.402;17.866;2023-01-29T05:54:00;100581.31;;;0.78;84.92
19795;BME280;10057;59.402;17.866;2023-01-29T05:56:27;100570.88;;;0.78;84.81
19795;BME280;10057;59.402;17.866;2023-01-29T05:58:54;100577.84;;;0.81;84.76
19795;BME280;10057;59.402;17.866;2023-01-29T06:01:24;100562.19;;;0.81;84.76
19795;BME280;10057;59.402;17.866;2023-01-29T06:03:51;100566.50;;;0.82;84.94
19795;BME280;10057;59.402;17.866;2023-01-29T06:06:18;100563.06;;;0.83;84.63
19795;BME280;10057;59.402;17.866;2023-01-29T06:08:45;100566.53;;;0.83;84.88
19795;BME280;10057;59.402;17.866;2023-01-29T06:11:13;100573.50;;;0.86;84.91
19795;BME280;10057;59.402;17.866;2023-01-29T06:13:40;100559.56;;;0.85;84.75
19795;BME280;10057;59.402;17.866;2023-01-29T06:16:07;100569.16;;;0.86;84.83
19795;BME280;10057;59.402;17.866;2023-01-29T06:18:35;100564.78;;;0.88;85.16
19795;BME280;10057;59.402;17.866;2023-01-29T06:21:03;100577.84;;;0.88;84.58
19795;BME280;10057;59.402;17.866;2023-01-29T06:23:31;100589.16;;;0.87;84.86
19795;BME280;10057;59.402;17.866;2023-01-29T06:26:10;100588.28;;;0.85;84.90
19795;BME280;10057;59.402;17.866;2023-01-29T06:28:37;100589.19;;;0.83;84.75
19795;BME280;10057;59.402;17.866;2023-01-29T06:31:05;100583.94;;;0.81;85.26
19795;BME280;10057;59.402;17.866;2023-01-29T06:33:52;100583.94;;;0.84;85.09
19795;BME280;10057;59.402;17.866;2023-01-29T06:36:19;100581.34;;;0.83;85.03
19795;BME280;10057;59.402;17.866;2023-01-29T06:38:45;100572.63;;;0.79;84.89
19795;BME280;10057;59.402;17.866;2023-01-29T06:41:17;100568.28;;;0.77;84.98
19795;BME280;10057;59.402;17.866;2023-01-29T06:43:45;100559.56;;;0.78;85.15
19795;BME280;10057;59.402;17.866;2023-01-29T06:46:12;100557.81;;;0.78;85.52
19795;BME280;10057;59.402;17.866;2023-01-29T06:48:39;100556.94;;;0.78;85.40
19795;BME280;10057;59.402;17.866;2023-01-29T06:51:07;100552.59;;;0.78;85.45
19795;BME280;10057;59.402;17.866;2023-01-29T06:53:38;100549.13;;;0.81;85.21
19795;BME280;10057;59.402;17.866;2023-01-29T06:56:06;100545.63;;;0.82;85.32
19795;BME280;10057;59.402;17.866;2023-01-29T06:58:35;100527.34;;;0.83;85.38
19795;BME280;10057;59.402;17.866;2023-01-29T07:01:07;100523.88;;;0.84;85.40
19795;BME280;10057;59.402;17.866;2023-01-29T07:03:50;100509.94;;;0.84;85.06
19795;BME280;10057;59.402;17.866;2023-01-29T07:06:17;100512.56;;;0.82;85.21
19795;BME280;10057;59.402;17.866;2023-01-29T07:08:44;100523.88;;;0.81;85.29
19795;BME280;10057;59.402;17.866;2023-01-29T07:11:11;100512.56;;;0.79;85.19
19795;BME280;10057;59.402;17.866;2023-01-29T07:13:38;100508.19;;;0.78;84.93
19795;BME280;10057;59.402;17.866;2023-01-29T07:16:05;100498.63;;;0.77;85.07
19795;BME280;10057;59.402;17.866;2023-01-29T07:18:33;100493.41;;;0.77;85.07
19795;BME280;10057;59.402;17.866;2023-01-29T07:21:03;100491.69;;;0.76;85.13
19795;BME280;10057;59.402;17.866;2023-01-29T07:23:33;100489.06;;;0.76;84.96
19795;BME280;10057;59.402;17.866;2023-01-29T07:26:04;100487.31;;;0.77;85.08
19795;BME280;10057;59.402;17.866;2023-01-29T07:28:35;100486.44;;;0.76;84.91
19795;BME280;10057;59.402;17.866;2023-01-29T07:31:02;100479.47;;;0.77;85.26
19795;BME280;10057;59.402;17.866;2023-01-29T07:33:29;100479.47;;;0.78;84.91
19795;BME280;10057;59.402;17.866;2023-01-29T07:35:56;100474.25;;;0.80;84.99
19795;BME280;10057;59.402;17.866;2023-01-29T07:38:23;100470.78;;;0.79;84.92
19795;BME280;10057;59.402;17.866;2023-01-29T07:40:53;100464.69;;;0.80;84.92
19795;BME280;10057;59.402;17.866;2023-01-29T07:43:20;100467.28;;;0.80;84.88
19795;BME280;10057;59.402;17.866;2023-01-29T07:45:46;100466.41;;;0.83;84.90
19795;BME280;10057;59.402;17.866;2023-01-29T07:48:13;100464.69;;;0.83;84.96
19795;BME280;10057;59.402;17.866;2023-01-29T07:50:40;100460.34;;;0.82;85.34
19795;BME280;10057;59.402;17.866;2023-01-29T07:53:13;100452.47;;;0.81;84.92
19795;BME280;10057;59.402;17.866;2023-01-29T07:55:43;100446.41;;;0.80;85.10
19795;BME280;10057;59.402;17.866;2023-01-29T07:58:10;100453.34;;;0.81;85.11
19795;BME280;10057;59.402;17.866;2023-01-29T08:00:37;100437.69;;;0.78;85.39
19795;BME280;10057;59.402;17.866;2023-01-29T08:03:11;100432.47;;;0.78;85.27
19795;BME280;10057;59.402;17.866;2023-01-29T08:05:38;100421.13;;;0.81;85.38
19795;BME280;10057;59.402;17.866;2023-01-29T08:08:05;100415.06;;;0.83;85.59
19795;BME280;10057;59.402;17.866;2023-01-29T08:10:34;100413.28;;;0.85;85.53
19795;BME280;10057;59.402;17.866;2023-01-29T08:13:02;100403.72;;;0.87;85.39
19795;BME280;10057;59.402;17.866;2023-01-29T08:15:29;100403.72;;;0.90;85.33
19795;BME280;10057;59.402;17.866;2023-01-29T08:17:56;100393.22;;;0.95;85.33
19795;BME280;10057;59.402;17.866;2023-01-29T08:20:24;100393.22;;;0.98;85.67
19795;BME280;10057;59.402;17.866;2023-01-29T08:23:02;100388.00;;;1.01;85.17
19795;BME280;10057;59.402;17.866;2023-01-29T08:25:30;100375.81;;;1.03;85.49
19795;BME280;10057;59.402;17.866;2023-01-29T08:27:58;100367.06;;;1.07;85.48
19795;BME280;10057;59.402;17.866;2023-01-29T08:30:26;100367.03;;;1.12;85.12
19795;BME280;10057;59.402;17.866;2023-01-29T08:32:53;100360.97;;;1.13;85.40
19795;BME280;10057;59.402;17.866;2023-01-29T08:35:20;100369.66;;;1.16;85.65
19795;BME280;10057;59.402;17.866;2023-01-29T08:37:58;100368.75;;;1.22;85.43
19795;BME280;10057;59.402;17.866;2023-01-29T08:40:27;100373.97;;;1.24;85.49
19795;BME280;10057;59.402;17.866;2023-01-29T08:43:01;100360.03;;;1.25;85.53
19795;BME280;10057;59.402;17.866;2023-01-29T08:45:32;100359.13;;;1.26;85.46
19795;BME280;10057;59.402;17.866;2023-01-29T08:48:00;100345.22;;;1.27;85.47
19795;BME280;10057;59.402;17.866;2023-01-29T08:50:27;100330.38;;;1.29;85.33
19795;BME280;10057;59.402;17.866;2023-01-29T08:53:03;100324.28;;;1.31;85.14
19795;BME280;10057;59.402;17.866;2023-01-29T08:55:38;100326.00;;;1.34;85.54
19795;BME280;10057;59.402;17.866;2023-01-29T08:58:06;100325.09;;;1.36;85.51
19795;BME280;10057;59.402;17.866;2023-01-29T09:00:34;100320.72;;;1.40;85.45
19795;BME280;10057;59.402;17.866;2023-01-29T09:03:00;100334.66;;;1.42;85.63
19795;BME280;10057;59.402;17.866;2023-01-29T09:05:28;100329.41;;;1.43;85.25
19795;BME280;10057;59.402;17.866;2023-01-29T09:07:56;100335.50;;;1.47;85.35
19795;BME280;10057;59.402;17.866;2023-01-29T09:10:23;100332.91;;;1.47;85.17
19795;BME280;10057;59.402;17.866;2023-01-29T09:12:50;100317.19;;;1.49;85.43
19795;BME280;10057;59.402;17.866;2023-01-29T09:15:17;100317.16;;;1.52;85.16
19795;BME280;10057;59.402;17.866;2023-01-29T09:17:44;100317.13;;;1.53;85.39
19795;BME280;10057;59.402;17.866;2023-01-29T09:20:11;100313.66;;;1.56;85.34
19795;BME280;10057;59.402;17.866;2023-01-29T09:22:38;100318.88;;;1.56;85.16
19795;BME280;10057;59.402;17.866;2023-01-29T09:25:05;100322.38;;;1.55;85.32
19795;BME280;10057;59.402;17.866;2023-01-29T09:27:32;100329.31;;;1.59;85.35
19795;BME280;10057;59.402;17.866;2023-01-29T09:29:58;100324.97;;;1.58;85.37
19795;BME280;10057;59.402;17.866;2023-01-29T09:32:25;100308.38;;;1.60;85.42
19795;BME280;10057;59.402;17.866;2023-01-29T09:35:12;100296.13;;;1.64;85.62
19795;BME280;10057;59.402;17.866;2023-01-29T09:37:39;100291.78;;;1.68;85.38
19795;BME280;10057;59.402;17.866;2023-01-29T09:40:08;100292.63;;;1.71;85.32
19795;BME280;10057;59.402;17.866;2023-01-29T09:42:49;100283.84;;;1.74;85.37
19795;BME280;10057;59.402;17.866;2023-01-29T09:45:22;100279.47;;;1.77;85.55
19795;BME280;10057;59.402;17.866;2023-01-29T09:47:51;100268.16;;;1.78;84.69
19795;BME280;10057;59.402;17.866;2023-01-29T09:50:22;100260.28;;;1.81;84.94
19795;BME280;10057;59.402;17.866;2023-01-29T09:55:49;100262.00;;;1.81;85.00
19795;BME280;10057;59.402;17.866;2023-01-29T09:58:32;100260.28;;;1.80;85.03
19795;BME280;10057;59.402;17.866;2023-01-29T10:01:09;100269.84;;;1.82;85.42
19795;BME280;10057;59.402;17.866;2023-01-29T10:06:28;100251.53;;;1.82;84.79
19795;BME280;10057;59.402;17.866;2023-01-29T10:09:19;100242.81;;;1.83;85.52
19795;BME280;10057;59.402;17.866;2023-01-29T10:14:59;100242.75;;;1.88;85.12
19795;BME280;10057;59.402;17.866;2023-01-29T10:23:23;100222.63;;;1.96;85.21
19795;BME280;10057;59.402;17.866;2023-01-29T10:25:52;100206.00;;;2.00;85.29
19795;BME280;10057;59.402;17.866;2023-01-29T10:28:28;100209.44;;;2.07;85.15
19795;BME280;10057;59.402;17.866;2023-01-29T10:31:00;100198.91;;;2.11;85.33
19795;BME280;10057;59.402;17.866;2023-01-29T10:33:48;100191.84;;;2.18;85.02
19795;BME280;10057;59.402;17.866;2023-01-29T10:39:15;100182.22;;;2.23;84.79
19795;BME280;10057;59.402;17.866;2023-01-29T10:53:24;100140.19;;;2.32;84.43
19795;BME280;10057;59.402;17.866;2023-01-29T10:55:56;100154.13;;;2.34;84.43
19795;BME280;10057;59.402;17.866;2023-01-29T11:00:56;100130.50;;;2.39;84.67
19795;BME280;10057;59.402;17.866;2023-01-29T11:03:29;100126.97;;;2.43;84.78
19795;BME280;10057;59.402;17.866;2023-01-29T11:11:15;100119.91;;;2.50;84.63
19795;BME280;10057;59.402;17.866;2023-01-29T11:14:03;100111.13;;;2.52;84.31
19795;BME280;10057;59.402;17.866;2023-01-29T11:16:43;100105.88;;;2.54;84.23
19795;BME280;10057;59.402;17.866;2023-01-29T11:19:11;100094.50;;;2.55;84.53
19795;BME280;10057;59.402;17.866;2023-01-29T11:21:59;100079.66;;;2.57;84.41
19795;BME280;10057;59.402;17.866;2023-01-29T11:24:27;100076.13;;;2.58;84.04
19795;BME280;10057;59.402;17.866;2023-01-29T11:26:56;100066.50;;;2.60;84.41
19795;BME280;10057;59.402;17.866;2023-01-29T11:31:53;100051.53;;;2.67;84.51
19795;BME280;10057;59.402;17.866;2023-01-29T11:34:22;100039.25;;;2.72;84.24
19795;BME280;10057;59.402;17.866;2023-01-29T11:37:01;100033.09;;;2.74;84.45
19795;BME280;10057;59.402;17.866;2023-01-29T11:39:30;100029.53;;;2.77;84.50
19795;BME280;10057;59.402;17.866;2023-01-29T11:42:00;100015.53;;;2.81;84.61
19795;BME280;10057;59.402;17.866;2023-01-29T11:44:34;100015.44;;;2.85;84.42
19795;BME280;10057;59.402;17.866;2023-01-29T11:47:25;99997.06;;;2.89;84.26
19795;BME280;10057;59.402;17.866;2023-01-29T11:52:22;99987.28;;;2.97;84.30
19795;BME280;10057;59.402;17.866;2023-01-29T11:54:57;99974.13;;;3.00;83.91
19795;BME280;10057;59.402;17.866;2023-01-29T11:57:33;99965.38;;;3.02;84.16
19795;BME280;10057;59.402;17.866;2023-01-29T12:00:09;99953.06;;;3.06;83.79
19795;BME280;10057;59.402;17.866;2023-01-29T12:05:37;99944.19;;;3.13;83.82
19795;BME280;10057;59.402;17.866;2023-01-29T12:08:15;99937.13;;;3.17;84.09
19795;BME280;10057;59.402;17.866;2023-01-29T12:10:43;99921.28;;;3.21;84.07
19795;BME280;10057;59.402;17.866;2023-01-29T12:15:41;99904.47;;;3.31;83.95
19795;BME280;10057;59.402;17.866;2023-01-29T12:18:31;99898.31;;;3.34;83.74
19795;BME280;10057;59.402;17.866;2023-01-29T12:21:03;99893.94;;;3.35;83.47
19795;BME280;10057;59.402;17.866;2023-01-29T12:23:38;99901.81;;;3.35;83.51
19795;BME280;10057;59.402;17.866;2023-01-29T12:26:24;99873.81;;;3.37;83.26
19795;BME280;10057;59.402;17.866;2023-01-29T12:29:03;99877.28;;;3.37;83.25
19795;BME280;10057;59.402;17.866;2023-01-29T12:34:51;99850.94;;;3.42;83.20
19795;BME280;10057;59.402;17.866;2023-01-29T12:37:25;99846.56;;;3.44;83.20
19795;BME280;10057;59.402;17.866;2023-01-29T12:39:56;99836.00;;;3.47;82.99
19795;BME280;10057;59.402;17.866;2023-01-29T12:42:23;99838.56;;;3.48;83.05
19795;BME280;10057;59.402;17.866;2023-01-29T12:45:06;99830.69;;;3.50;83.10
19795;BME280;10057;59.402;17.866;2023-01-29T12:47:39;99826.25;;;3.52;83.16
19795;BME280;10057;59.402;17.866;2023-01-29T12:50:19;99811.34;;;3.54;82.84
19795;BME280;10057;59.402;17.866;2023-01-29T12:52:50;99807.81;;;3.56;82.85
19795;BME280;10057;59.402;17.866;2023-01-29T12:55:30;99809.56;;;3.56;82.66
19795;BME280;10057;59.402;17.866;2023-01-29T12:58:08;99804.34;;;3.56;82.99
19795;BME280;10057;59.402;17.866;2023-01-29T13:00:39;99811.22;;;3.60;82.83
19795;BME280;10057;59.402;17.866;2023-01-29T13:03:19;99815.53;;;3.63;82.66
19795;BME280;10057;59.402;17.866;2023-01-29T13:06:53;99802.38;;;3.64;82.82
19795;BME280;10057;59.402;17.866;2023-01-29T13:08:52;99803.28;;;3.63;82.71
19795;BME280;10057;59.402;17.866;2023-01-29T13:11:34;99791.94;;;3.63;82.68
19795;BME280;10057;59.402;17.866;2023-01-29T13:14:43;99777.84;;;3.65;82.61
19795;BME280;10057;59.402;17.866;2023-01-29T13:20:11;99756.00;;;3.66;82.70
19795;BME280;10057;59.402;17.866;2023-01-29T13:22:41;99762.06;;;3.68;82.47
19795;BME280;10057;59.402;17.866;2023-01-29T13:25:16;99749.78;;;3.70;82.42
19795;BME280;10057;59.402;17.866;2023-01-29T13:27:44;99741.00;;;3.71;82.79
19795;BME280;10057;59.402;17.866;2023-01-29T13:30:28;99733.13;;;3.71;82.63
19795;BME280;10057;59.402;17.866;2023-01-29T13:32:57;99726.97;;;3.72;82.58
19795;BME280;10057;59.402;17.866;2023-01-29T13:35:41;99728.72;;;3.73;82.58
19795;BME280;10057;59.402;17.866;2023-01-29T13:38:30;99732.97;;;3.77;82.34
19795;BME280;10057;59.402;17.866;2023-01-29T13:41:04;99725.88;;;3.81;82.34
19795;BME280;10057;59.402;17.866;2023-01-29T13:43:34;99719.78;;;3.80;82.49
19795;BME280;10057;59.402;17.866;2023-01-29T13:46:11;99719.72;;;3.82;82.34
19795;BME280;10057;59.402;17.866;2023-01-29T13:48:44;99707.47;;;3.83;82.46
19795;BME280;10057;59.402;17.866;2023-01-29T13:51:15;99700.44;;;3.85;82.63
19795;BME280;10057;59.402;17.866;2023-01-29T13:53:59;99703.88;;;3.87;82.53
19795;BME280;10057;59.402;17.866;2023-01-29T13:58:55;99673.13;;;3.92;82.57
19795;BME280;10057;59.402;17.866;2023-01-29T14:04:22;99647.72;;;3.94;82.31
19795;BME280;10057;59.402;17.866;2023-01-29T14:07:00;99638.94;;;3.95;82.17
19795;BME280;10057;59.402;17.866;2023-01-29T14:10:08;99642.41;;;3.95;82.26
19795;BME280;10057;59.402;17.866;2023-01-29T14:12:40;99639.72;;;3.98;82.27
19795;BME280;10057;59.402;17.866;2023-01-29T14:15:17;99630.06;;;3.99;82.33
19795;BME280;10057;59.402;17.866;2023-01-29T14:21:01;99622.09;;;4.02;82.22
19795;BME280;10057;59.402;17.866;2023-01-29T14:26:21;99610.59;;;4.06;82.11
19795;BME280;10057;59.402;17.866;2023-01-29T14:36:43;99590.31;;;4.13;81.94
19795;BME280;10057;59.402;17.866;2023-01-29T14:39:33;99585.03;;;4.14;81.79
19795;BME280;10057;59.402;17.866;2023-01-29T14:42:03;99573.59;;;4.15;82.23
19795;BME280;10057;59.402;17.866;2023-01-29T14:53:08;99545.44;;;4.20;82.12
19795;BME280;10057;59.402;17.866;2023-01-29T14:55:44;99545.44;;;4.20;81.90
19795;BME280;10057;59.402;17.866;2023-01-29T14:58:16;99530.59;;;4.19;81.76
19795;BME280;10057;59.402;17.866;2023-01-29T15:00:44;99528.81;;;4.21;82.18
19795;BME280;10057;59.402;17.866;2023-01-29T15:03:26;99505.13;;;4.23;82.12
19795;BME280;10057;59.402;17.866;2023-01-29T15:05:54;99497.25;;;4.23;82.06
19795;BME280;10057;59.402;17.866;2023-01-29T15:10:57;99476.22;;;4.24;81.81
19795;BME280;10057;59.402;17.866;2023-01-29T15:19:41;99440.25;;;4.26;81.66
19795;BME280;10057;59.402;17.866;2023-01-29T15:22:16;99443.63;;;4.30;81.79
19795;BME280;10057;59.402;17.866;2023-01-29T15:24:44;99447.09;;;4.32;81.56
19795;BME280;10057;59.402;17.866;2023-01-29T15:27:14;99431.25;;;4.34;81.76
19795;BME280;10057;59.402;17.866;2023-01-29T15:29:45;99425.13;;;4.35;81.59
19795;BME280;10057;59.402;17.866;2023-01-29T15:32:17;99418.88;;;4.37;81.78
19795;BME280;10057;59.402;17.866;2023-01-29T15:34:53;99414.47;;;4.39;81.38